sensor_id;sensor_type;location;lat;lon;timestamp;P1;durP1;ratioP1;P2;durP2;ratioP2
23743;SDS011;12052;53.478;10.182;2023-10-31T00:01:31;4.80;;;3.03;;
23743;SDS011;12052;53.478;10.182;2023-10-31T00:03:57;6.90;;;3.03;;
23743;SDS011;12052;53.478;10.182;2023-10-31T00:06:27;8.25;;;3.58;;
23743;SDS011;12052;53.478;10.182;2023-10-31T00:08:55;9.05;;;2.95;;
23743;SDS011;12052;53.478;10.182;2023-10-31T00:11:21;4.65;;;3.00;;
23743;SDS011;12052;53.478;10.182;2023-10-31T00:13:47;8.20;;;3.05;;
23743;SDS011;12052;53.478;10.182;2023-10-31T00:19:41;5.28;;;2.85;;
23743;SDS011;12052;53.478;10.182;2023-10-31T00:26:26;5.18;;;2.92;;
23743;SDS011;12052;53.478;10.182;2023-10-31T00:28:52;4.53;;;2.72;;
23743;SDS011;12052;53.478;10.182;2023-10-31T00:31:17;10.40;;;4.57;;
23743;SDS011;12052;53.478;10.182;2023-10-31T00:33:43;13.40;;;3.38;;
23743;SDS011;12052;53.478;10.182;2023-10-31T00:36:09;7.50;;;2.83;;
23743;SDS011;12052;53.478;10.182;2023-10-31T00:38:37;8.02;;;2.50;;
23743;SDS011;12052;53.478;10.182;2023-10-31T00:41:05;4.45;;;2.78;;
23743;SDS011;12052;53.478;10.182;2023-10-31T00:43:36;6.22;;;2.65;;
23743;SDS011;12052;53.478;10.182;2023-10-31T00:46:40;6.78;;;3.60;;
23743;SDS011;12052;53.478;10.182;2023-10-31T00:49:09;3.92;;;2.40;;
23743;SDS011;12052;53.478;10.182;2023-10-31T00:51:34;9.98;;;3.15;;
23743;SDS011;12052;53.478;10.182;2023-10-31T00:54:00;7.07;;;3.05;;
23743;SDS011;12052;53.478;10.182;2023-10-31T00:56:26;4.90;;;3.10;;
23743;SDS011;12052;53.478;10.182;2023-10-31T00:58:51;4.90;;;2.75;;
23743;SDS011;12052;53.478;10.182;2023-10-31T01:01:17;7.57;;;3.13;;
23743;SDS011;12052;53.478;10.182;2023-10-31T01:03:42;7.55;;;3.03;;
23743;SDS011;12052;53.478;10.182;2023-10-31T01:06:08;6.00;;;2.97;;
23743;SDS011;12052;53.478;10.182;2023-10-31T01:08:35;8.55;;;3.33;;
23743;SDS011;12052;53.478;10.182;2023-10-31T01:11:02;7.78;;;3.03;;
23743;SDS011;12052;53.478;10.182;2023-10-31T01:13:27;6.45;;;3.20;;
23743;SDS011;12052;53.478;10.182;2023-10-31T01:15:53;7.03;;;3.05;;
23743;SDS011;12052;53.478;10.182;2023-10-31T01:18:19;4.65;;;2.80;;
23743;SDS011;12052;53.478;10.182;2023-10-31T01:20:45;5.25;;;3.08;;
23743;SDS011;12052;53.478;10.182;2023-10-31T01:23:11;4.43;;;3.22;;
23743;SDS011;12052;53.478;10.182;2023-10-31T01:25:37;4.85;;;3.22;;
23743;SDS011;12052;53.478;10.182;2023-10-31T01:28:03;11.48;;;3.20;;
23743;SDS011;12052;53.478;10.182;2023-10-31T01:30:28;5.82;;;3.28;;
23743;SDS011;12052;53.478;10.182;2023-10-31T01:32:54;10.43;;;3.58;;
23743;SDS011;12052;53.478;10.182;2023-10-31T01:35:20;8.65;;;3.25;;
23743;SDS011;12052;53.478;10.182;2023-10-31T01:37:48;5.57;;;3.20;;
23743;SDS011;12052;53.478;10.182;2023-10-31T01:40:13;7.30;;;3.55;;
23743;SDS011;12052;53.478;10.182;2023-10-31T01:42:39;4.32;;;2.88;;
23743;SDS011;12052;53.478;10.182;2023-10-31T01:45:05;14.38;;;3.40;;
23743;SDS011;12052;53.478;10.182;2023-10-31T01:47:32;4.50;;;3.03;;
23743;SDS011;12052;53.478;10.182;2023-10-31T01:49:58;4.82;;;3.08;;
23743;SDS011;12052;53.478;10.182;2023-10-31T01:52:25;5.07;;;3.63;;
23743;SDS011;12052;53.478;10.182;2023-10-31T01:54:51;6.13;;;3.30;;
23743;SDS011;12052;53.478;10.182;2023-10-31T01:57:18;8.73;;;3.42;;
23743;SDS011;12052;53.478;10.182;2023-10-31T02:12:54;5.93;;;3.10;;
23743;SDS011;12052;53.478;10.182;2023-10-31T02:15:20;3.80;;;3.00;;
23743;SDS011;12052;53.478;10.182;2023-10-31T02:17:45;10.73;;;3.45;;
23743;SDS011;12052;53.478;10.182;2023-10-31T02:20:11;5.63;;;3.20;;
23743;SDS011;12052;53.478;10.182;2023-10-31T02:22:36;4.63;;;3.08;;
23743;SDS011;12052;53.478;10.182;2023-10-31T02:25:02;5.70;;;3.50;;
23743;SDS011;12052;53.478;10.182;2023-10-31T02:27:28;5.75;;;4.00;;
23743;SDS011;12052;53.478;10.182;2023-10-31T02:29:53;5.60;;;3.30;;
23743;SDS011;12052;53.478;10.182;2023-10-31T02:32:19;7.35;;;3.22;;
23743;SDS011;12052;53.478;10.182;2023-10-31T02:34:45;4.57;;;2.92;;
23743;SDS011;12052;53.478;10.182;2023-10-31T02:37:11;7.47;;;3.47;;
23743;SDS011;12052;53.478;10.182;2023-10-31T02:39:37;4.95;;;3.38;;
23743;SDS011;12052;53.478;10.182;2023-10-31T02:42:02;4.18;;;2.85;;
23743;SDS011;12052;53.478;10.182;2023-10-31T02:44:28;11.95;;;3.53;;
23743;SDS011;12052;53.478;10.182;2023-10-31T02:46:54;5.10;;;3.10;;
23743;SDS011;12052;53.478;10.182;2023-10-31T02:49:20;6.07;;;4.03;;
23743;SDS011;12052;53.478;10.182;2023-10-31T02:51:46;8.23;;;3.58;;
23743;SDS011;12052;53.478;10.182;2023-10-31T02:54:12;17.08;;;3.72;;
23743;SDS011;12052;53.478;10.182;2023-10-31T02:56:37;9.05;;;3.88;;
23743;SDS011;12052;53.478;10.182;2023-10-31T02:59:04;4.70;;;3.08;;
23743;SDS011;12052;53.478;10.182;2023-10-31T03:01:29;8.27;;;3.33;;
23743;SDS011;12052;53.478;10.182;2023-10-31T03:03:55;4.78;;;3.25;;
23743;SDS011;12052;53.478;10.182;2023-10-31T03:06:21;7.65;;;3.67;;
23743;SDS011;12052;53.478;10.182;2023-10-31T03:08:46;9.52;;;3.65;;
23743;SDS011;12052;53.478;10.182;2023-10-31T03:11:22;8.02;;;3.75;;
23743;SDS011;12052;53.478;10.182;2023-10-31T03:13:49;10.00;;;4.30;;
23743;SDS011;12052;53.478;10.182;2023-10-31T03:16:15;6.95;;;3.50;;
23743;SDS011;12052;53.478;10.182;2023-10-31T03:18:41;10.95;;;4.00;;
23743;SDS011;12052;53.478;10.182;2023-10-31T03:21:07;6.35;;;4.15;;
23743;SDS011;12052;53.478;10.182;2023-10-31T03:23:32;9.75;;;4.22;;
23743;SDS011;12052;53.478;10.182;2023-10-31T03:25:58;9.00;;;4.45;;
23743;SDS011;12052;53.478;10.182;2023-10-31T03:28:24;9.50;;;4.55;;
23743;SDS011;12052;53.478;10.182;2023-10-31T03:30:50;9.23;;;4.30;;
23743;SDS011;12052;53.478;10.182;2023-10-31T03:33:16;7.90;;;4.40;;
23743;SDS011;12052;53.478;10.182;2023-10-31T03:35:42;9.80;;;5.10;;
23743;SDS011;12052;53.478;10.182;2023-10-31T03:38:08;10.70;;;4.65;;
23743;SDS011;12052;53.478;10.182;2023-10-31T03:40:33;8.43;;;4.68;;
23743;SDS011;12052;53.478;10.182;2023-10-31T03:42:59;10.77;;;4.35;;
23743;SDS011;12052;53.478;10.182;2023-10-31T03:45:25;10.63;;;4.60;;
23743;SDS011;12052;53.478;10.182;2023-10-31T03:47:50;7.97;;;5.13;;
23743;SDS011;12052;53.478;10.182;2023-10-31T03:50:16;9.20;;;4.68;;
23743;SDS011;12052;53.478;10.182;2023-10-31T03:52:41;8.75;;;5.18;;
23743;SDS011;12052;53.478;10.182;2023-10-31T03:55:08;12.30;;;4.78;;
23743;SDS011;12052;53.478;10.182;2023-10-31T03:57:34;10.73;;;4.30;;
23743;SDS011;12052;53.478;10.182;2023-10-31T03:59:59;8.82;;;4.68;;
23743;SDS011;12052;53.478;10.182;2023-10-31T04:02:25;7.90;;;4.43;;
23743;SDS011;12052;53.478;10.182;2023-10-31T04:04:51;9.25;;;5.00;;
23743;SDS011;12052;53.478;10.182;2023-10-31T04:07:16;8.45;;;4.63;;
23743;SDS011;12052;53.478;10.182;2023-10-31T04:09:42;6.50;;;3.97;;
23743;SDS011;12052;53.478;10.182;2023-10-31T04:12:08;9.32;;;4.50;;
23743;SDS011;12052;53.478;10.182;2023-10-31T04:14:34;6.35;;;4.13;;
23743;SDS011;12052;53.478;10.182;2023-10-31T04:16:59;6.07;;;4.32;;
23743;SDS011;12052;53.478;10.182;2023-10-31T04:19:25;8.15;;;5.00;;
23743;SDS011;12052;53.478;10.182;2023-10-31T04:21:52;10.10;;;4.28;;
23743;SDS011;12052;53.478;10.182;2023-10-31T04:24:19;7.32;;;4.35;;
23743;SDS011;12052;53.478;10.182;2023-10-31T04:26:44;8.18;;;4.55;;
23743;SDS011;12052;53.478;10.182;2023-10-31T04:29:10;8.15;;;4.55;;
23743;SDS011;12052;53.478;10.182;2023-10-31T04:31:35;7.65;;;4.38;;
23743;SDS011;12052;53.478;10.182;2023-10-31T04:34:01;8.20;;;4.78;;
23743;SDS011;12052;53.478;10.182;2023-10-31T04:36:26;7.78;;;4.20;;
23743;SDS011;12052;53.478;10.182;2023-10-31T04:38:52;9.63;;;4.50;;
23743;SDS011;12052;53.478;10.182;2023-10-31T04:41:18;7.07;;;4.53;;
23743;SDS011;12052;53.478;10.182;2023-10-31T04:43:44;9.95;;;5.18;;
23743;SDS011;12052;53.478;10.182;2023-10-31T04:46:09;11.32;;;4.65;;
23743;SDS011;12052;53.478;10.182;2023-10-31T04:48:35;8.80;;;5.65;;
23743;SDS011;12052;53.478;10.182;2023-10-31T04:51:00;12.10;;;5.00;;
23743;SDS011;12052;53.478;10.182;2023-10-31T04:53:26;11.43;;;5.60;;
23743;SDS011;12052;53.478;10.182;2023-10-31T04:55:51;8.30;;;4.90;;
23743;SDS011;12052;53.478;10.182;2023-10-31T04:58:17;9.10;;;5.38;;
23743;SDS011;12052;53.478;10.182;2023-10-31T05:00:43;10.27;;;5.45;;
23743;SDS011;12052;53.478;10.182;2023-10-31T05:03:09;10.80;;;5.00;;
23743;SDS011;12052;53.478;10.182;2023-10-31T05:05:35;10.55;;;4.97;;
23743;SDS011;12052;53.478;10.182;2023-10-31T05:08:00;9.27;;;5.18;;
23743;SDS011;12052;53.478;10.182;2023-10-31T05:10:26;8.80;;;4.65;;
23743;SDS011;12052;53.478;10.182;2023-10-31T05:12:51;9.73;;;5.07;;
23743;SDS011;12052;53.478;10.182;2023-10-31T05:15:17;11.60;;;5.10;;
23743;SDS011;12052;53.478;10.182;2023-10-31T05:17:43;12.55;;;5.18;;
23743;SDS011;12052;53.478;10.182;2023-10-31T05:20:09;11.45;;;6.18;;
23743;SDS011;12052;53.478;10.182;2023-10-31T05:22:36;9.18;;;4.85;;
23743;SDS011;12052;53.478;10.182;2023-10-31T05:25:01;15.05;;;5.07;;
23743;SDS011;12052;53.478;10.182;2023-10-31T05:27:28;14.30;;;5.90;;
23743;SDS011;12052;53.478;10.182;2023-10-31T05:29:54;8.90;;;5.18;;
23743;SDS011;12052;53.478;10.182;2023-10-31T05:32:19;12.27;;;5.10;;
23743;SDS011;12052;53.478;10.182;2023-10-31T05:34:45;10.68;;;5.90;;
23743;SDS011;12052;53.478;10.182;2023-10-31T05:37:10;7.80;;;5.00;;
23743;SDS011;12052;53.478;10.182;2023-10-31T05:39:36;8.77;;;5.20;;
23743;SDS011;12052;53.478;10.182;2023-10-31T05:42:02;12.52;;;6.05;;
23743;SDS011;12052;53.478;10.182;2023-10-31T05:44:28;15.23;;;6.15;;
23743;SDS011;12052;53.478;10.182;2023-10-31T05:46:54;13.50;;;5.97;;
23743;SDS011;12052;53.478;10.182;2023-10-31T05:49:19;11.82;;;5.97;;
23743;SDS011;12052;53.478;10.182;2023-10-31T05:51:49;10.68;;;6.07;;
23743;SDS011;12052;53.478;10.182;2023-10-31T05:54:16;12.45;;;6.97;;
23743;SDS011;12052;53.478;10.182;2023-10-31T05:56:42;11.38;;;6.10;;
23743;SDS011;12052;53.478;10.182;2023-10-31T05:59:08;12.50;;;7.18;;
23743;SDS011;12052;53.478;10.182;2023-10-31T06:01:33;12.55;;;6.30;;
23743;SDS011;12052;53.478;10.182;2023-10-31T06:03:59;14.98;;;6.68;;
23743;SDS011;12052;53.478;10.182;2023-10-31T06:06:24;12.52;;;6.38;;
23743;SDS011;12052;53.478;10.182;2023-10-31T06:08:50;11.88;;;6.65;;
23743;SDS011;12052;53.478;10.182;2023-10-31T06:11:15;12.20;;;6.55;;
23743;SDS011;12052;53.478;10.182;2023-10-31T06:13:41;11.02;;;6.57;;
23743;SDS011;12052;53.478;10.182;2023-10-31T06:16:07;11.73;;;6.22;;
23743;SDS011;12052;53.478;10.182;2023-10-31T06:18:33;8.65;;;5.47;;
23743;SDS011;12052;53.478;10.182;2023-10-31T06:20:59;10.07;;;5.60;;
23743;SDS011;12052;53.478;10.182;2023-10-31T06:23:25;14.50;;;6.55;;
23743;SDS011;12052;53.478;10.182;2023-10-31T06:25:50;9.88;;;5.85;;
23743;SDS011;12052;53.478;10.182;2023-10-31T06:28:16;11.93;;;6.25;;
23743;SDS011;12052;53.478;10.182;2023-10-31T06:30:42;10.10;;;5.82;;
23743;SDS011;12052;53.478;10.182;2023-10-31T06:33:07;9.57;;;5.72;;
23743;SDS011;12052;53.478;10.182;2023-10-31T06:35:33;9.45;;;5.25;;
23743;SDS011;12052;53.478;10.182;2023-10-31T06:37:59;12.68;;;5.53;;
23743;SDS011;12052;53.478;10.182;2023-10-31T06:40:26;10.02;;;5.90;;
23743;SDS011;12052;53.478;10.182;2023-10-31T06:42:52;9.60;;;5.30;;
23743;SDS011;12052;53.478;10.182;2023-10-31T06:45:17;9.80;;;5.68;;
23743;SDS011;12052;53.478;10.182;2023-10-31T06:47:43;6.25;;;4.13;;
23743;SDS011;12052;53.478;10.182;2023-10-31T06:50:09;3.65;;;2.28;;
23743;SDS011;12052;53.478;10.182;2023-10-31T06:52:35;2.00;;;1.50;;
23743;SDS011;12052;53.478;10.182;2023-10-31T06:55:01;1.77;;;1.20;;
23743;SDS011;12052;53.478;10.182;2023-10-31T06:57:26;1.10;;;0.90;;
23743;SDS011;12052;53.478;10.182;2023-10-31T06:59:52;1.58;;;1.20;;
23743;SDS011;12052;53.478;10.182;2023-10-31T07:02:18;1.85;;;1.38;;
23743;SDS011;12052;53.478;10.182;2023-10-31T07:04:44;1.75;;;1.25;;
23743;SDS011;12052;53.478;10.182;2023-10-31T07:07:09;1.55;;;1.10;;
23743;SDS011;12052;53.478;10.182;2023-10-31T07:09:35;1.70;;;1.30;;
23743;SDS011;12052;53.478;10.182;2023-10-31T07:12:00;1.13;;;0.98;;
23743;SDS011;12052;53.478;10.182;2023-10-31T07:14:27;1.88;;;1.23;;
23743;SDS011;12052;53.478;10.182;2023-10-31T07:16:52;3.63;;;1.70;;
23743;SDS011;12052;53.478;10.182;2023-10-31T07:19:18;3.17;;;2.00;;
23743;SDS011;12052;53.478;10.182;2023-10-31T07:21:43;5.72;;;2.63;;
23743;SDS011;12052;53.478;10.182;2023-10-31T07:24:09;6.35;;;3.10;;
23743;SDS011;12052;53.478;10.182;2023-10-31T07:26:35;6.30;;;3.65;;
23743;SDS011;12052;53.478;10.182;2023-10-31T07:29:01;4.93;;;3.38;;
23743;SDS011;12052;53.478;10.182;2023-10-31T07:31:26;7.95;;;4.45;;
23743;SDS011;12052;53.478;10.182;2023-10-31T07:33:52;8.00;;;4.20;;
23743;SDS011;12052;53.478;10.182;2023-10-31T07:36:18;8.60;;;4.90;;
23743;SDS011;12052;53.478;10.182;2023-10-31T07:38:43;11.20;;;6.38;;
23743;SDS011;12052;53.478;10.182;2023-10-31T07:41:09;9.25;;;4.97;;
23743;SDS011;12052;53.478;10.182;2023-10-31T07:43:34;8.57;;;4.78;;
23743;SDS011;12052;53.478;10.182;2023-10-31T07:46:00;9.20;;;4.22;;
23743;SDS011;12052;53.478;10.182;2023-10-31T07:48:26;9.10;;;4.80;;
23743;SDS011;12052;53.478;10.182;2023-10-31T07:50:54;11.25;;;5.28;;
23743;SDS011;12052;53.478;10.182;2023-10-31T07:53:19;9.55;;;4.75;;
23743;SDS011;12052;53.478;10.182;2023-10-31T07:55:45;5.82;;;3.60;;
23743;SDS011;12052;53.478;10.182;2023-10-31T07:58:10;4.05;;;2.05;;
23743;SDS011;12052;53.478;10.182;2023-10-31T08:00:36;5.82;;;2.50;;
23743;SDS011;12052;53.478;10.182;2023-10-31T08:03:04;3.97;;;2.63;;
23743;SDS011;12052;53.478;10.182;2023-10-31T08:05:29;3.17;;;1.70;;
23743;SDS011;12052;53.478;10.182;2023-10-31T08:07:55;1.45;;;0.77;;
23743;SDS011;12052;53.478;10.182;2023-10-31T08:10:21;1.25;;;0.75;;
23743;SDS011;12052;53.478;10.182;2023-10-31T08:12:46;3.83;;;1.00;;
23743;SDS011;12052;53.478;10.182;2023-10-31T08:15:12;1.70;;;1.13;;
23743;SDS011;12052;53.478;10.182;2023-10-31T08:17:38;0.70;;;0.50;;
23743;SDS011;12052;53.478;10.182;2023-10-31T08:20:04;0.60;;;0.60;;
23743;SDS011;12052;53.478;10.182;2023-10-31T08:22:30;0.68;;;0.60;;
23743;SDS011;12052;53.478;10.182;2023-10-31T08:24:57;3.75;;;0.85;;
23743;SDS011;12052;53.478;10.182;2023-10-31T08:27:22;1.05;;;0.60;;
23743;SDS011;12052;53.478;10.182;2023-10-31T08:29:48;1.83;;;0.70;;
23743;SDS011;12052;53.478;10.182;2023-10-31T08:32:13;1.83;;;0.80;;
23743;SDS011;12052;53.478;10.182;2023-10-31T08:34:39;3.20;;;0.45;;
23743;SDS011;12052;53.478;10.182;2023-10-31T08:37:04;4.28;;;0.60;;
23743;SDS011;12052;53.478;10.182;2023-10-31T08:39:30;0.75;;;0.60;;
23743;SDS011;12052;53.478;10.182;2023-10-31T08:41:56;0.57;;;0.40;;
23743;SDS011;12052;53.478;10.182;2023-10-31T08:44:23;0.40;;;0.40;;
23743;SDS011;12052;53.478;10.182;2023-10-31T08:46:48;0.40;;;0.40;;
23743;SDS011;12052;53.478;10.182;2023-10-31T08:49:14;0.20;;;0.20;;
23743;SDS011;12052;53.478;10.182;2023-10-31T08:51:41;2.20;;;0.40;;
23743;SDS011;12052;53.478;10.182;2023-10-31T08:54:07;0.30;;;0.30;;
23743;SDS011;12052;53.478;10.182;2023-10-31T08:56:34;0.32;;;0.32;;
23743;SDS011;12052;53.478;10.182;2023-10-31T08:58:59;0.40;;;0.40;;
23743;SDS011;12052;53.478;10.182;2023-10-31T09:01:29;1.20;;;0.70;;
23743;SDS011;12052;53.478;10.182;2023-10-31T09:03:55;1.50;;;0.35;;
23743;SDS011;12052;53.478;10.182;2023-10-31T09:06:20;0.50;;;0.50;;
23743;SDS011;12052;53.478;10.182;2023-10-31T09:08:46;0.40;;;0.40;;
23743;SDS011;12052;53.478;10.182;2023-10-31T09:11:12;0.68;;;0.50;;
23743;SDS011;12052;53.478;10.182;2023-10-31T09:16:12;1.20;;;0.40;;
23743;SDS011;12052;53.478;10.182;2023-10-31T09:18:38;0.30;;;0.30;;
23743;SDS011;12052;53.478;10.182;2023-10-31T09:21:04;0.30;;;0.30;;
23743;SDS011;12052;53.478;10.182;2023-10-31T09:23:30;0.52;;;0.35;;
23743;SDS011;12052;53.478;10.182;2023-10-31T09:25:55;1.02;;;0.52;;
23743;SDS011;12052;53.478;10.182;2023-10-31T09:28:21;0.30;;;0.30;;
23743;SDS011;12052;53.478;10.182;2023-10-31T09:30:47;0.32;;;0.30;;
23743;SDS011;12052;53.478;10.182;2023-10-31T09:33:12;0.40;;;0.28;;
23743;SDS011;12052;53.478;10.182;2023-10-31T09:35:38;0.30;;;0.30;;
23743;SDS011;12052;53.478;10.182;2023-10-31T09:38:04;0.30;;;0.30;;
23743;SDS011;12052;53.478;10.182;2023-10-31T09:40:29;0.30;;;0.30;;
23743;SDS011;12052;53.478;10.182;2023-10-31T09:42:55;0.30;;;0.30;;
23743;SDS011;12052;53.478;10.182;2023-10-31T09:45:21;0.30;;;0.30;;
23743;SDS011;12052;53.478;10.182;2023-10-31T09:47:47;1.08;;;0.60;;
23743;SDS011;12052;53.478;10.182;2023-10-31T09:50:14;0.75;;;0.40;;
23743;SDS011;12052;53.478;10.182;2023-10-31T09:52:40;0.40;;;0.40;;
23743;SDS011;12052;53.478;10.182;2023-10-31T09:55:12;0.40;;;0.40;;
23743;SDS011;12052;53.478;10.182;2023-10-31T10:00:10;1.25;;;0.50;;
23743;SDS011;12052;53.478;10.182;2023-10-31T10:05:12;0.50;;;0.50;;
23743;SDS011;12052;53.478;10.182;2023-10-31T10:07:44;2.35;;;0.70;;
23743;SDS011;12052;53.478;10.182;2023-10-31T10:10:13;0.50;;;0.43;;
23743;SDS011;12052;53.478;10.182;2023-10-31T10:12:45;0.95;;;0.35;;
23743;SDS011;12052;53.478;10.182;2023-10-31T10:15:18;0.45;;;0.40;;
23743;SDS011;12052;53.478;10.182;2023-10-31T10:17:49;0.50;;;0.50;;
23743;SDS011;12052;53.478;10.182;2023-10-31T10:22:44;1.25;;;0.82;;
23743;SDS011;12052;53.478;10.182;2023-10-31T10:25:14;1.40;;;0.70;;
23743;SDS011;12052;53.478;10.182;2023-10-31T10:27:44;4.03;;;0.60;;
23743;SDS011;12052;53.478;10.182;2023-10-31T10:30:12;0.80;;;0.77;;
23743;SDS011;12052;53.478;10.182;2023-10-31T10:32:47;0.80;;;0.70;;
23743;SDS011;12052;53.478;10.182;2023-10-31T10:35:16;5.45;;;1.27;;
23743;SDS011;12052;53.478;10.182;2023-10-31T10:37:48;1.33;;;0.85;;
23743;SDS011;12052;53.478;10.182;2023-10-31T10:40:17;3.72;;;1.23;;
23743;SDS011;12052;53.478;10.182;2023-10-31T10:42:49;1.80;;;1.50;;
23743;SDS011;12052;53.478;10.182;2023-10-31T10:45:22;3.20;;;1.42;;
23743;SDS011;12052;53.478;10.182;2023-10-31T10:47:57;1.33;;;1.20;;
23743;SDS011;12052;53.478;10.182;2023-10-31T10:50:28;1.80;;;1.52;;
23743;SDS011;12052;53.478;10.182;2023-10-31T10:53:23;1.63;;;1.27;;
23743;SDS011;12052;53.478;10.182;2023-10-31T11:06:50;2.22;;;1.65;;
23743;SDS011;12052;53.478;10.182;2023-10-31T11:12:53;1.85;;;1.00;;
23743;SDS011;12052;53.478;10.182;2023-10-31T11:16:17;1.25;;;0.90;;
23743;SDS011;12052;53.478;10.182;2023-10-31T11:19:43;2.30;;;0.70;;
23743;SDS011;12052;53.478;10.182;2023-10-31T11:23:06;0.65;;;0.60;;
23743;SDS011;12052;53.478;10.182;2023-10-31T11:25:43;0.70;;;0.70;;
23743;SDS011;12052;53.478;10.182;2023-10-31T11:28:16;2.53;;;1.30;;
23743;SDS011;12052;53.478;10.182;2023-10-31T11:30:42;2.53;;;0.80;;
23743;SDS011;12052;53.478;10.182;2023-10-31T11:33:15;1.83;;;0.90;;
23743;SDS011;12052;53.478;10.182;2023-10-31T11:35:44;2.33;;;1.40;;
23743;SDS011;12052;53.478;10.182;2023-10-31T11:38:17;1.85;;;1.15;;
23743;SDS011;12052;53.478;10.182;2023-10-31T11:41:01;4.38;;;1.08;;
23743;SDS011;12052;53.478;10.182;2023-10-31T11:46:04;1.27;;;0.70;;
23743;SDS011;12052;53.478;10.182;2023-10-31T11:48:45;4.05;;;1.10;;
23743;SDS011;12052;53.478;10.182;2023-10-31T11:51:13;3.35;;;0.85;;
23743;SDS011;12052;53.478;10.182;2023-10-31T11:53:39;1.25;;;0.95;;
23743;SDS011;12052;53.478;10.182;2023-10-31T11:56:05;1.13;;;0.80;;
23743;SDS011;12052;53.478;10.182;2023-10-31T11:58:31;0.70;;;0.60;;
23743;SDS011;12052;53.478;10.182;2023-10-31T12:01:01;1.25;;;0.90;;
23743;SDS011;12052;53.478;10.182;2023-10-31T12:03:35;2.22;;;1.00;;
23743;SDS011;12052;53.478;10.182;2023-10-31T12:06:06;1.67;;;0.90;;
23743;SDS011;12052;53.478;10.182;2023-10-31T12:08:35;1.70;;;1.15;;
23743;SDS011;12052;53.478;10.182;2023-10-31T12:13:39;1.15;;;0.70;;
23743;SDS011;12052;53.478;10.182;2023-10-31T12:16:07;0.80;;;0.75;;
23743;SDS011;12052;53.478;10.182;2023-10-31T12:18:34;0.82;;;0.60;;
23743;SDS011;12052;53.478;10.182;2023-10-31T12:21:00;5.07;;;0.75;;
23743;SDS011;12052;53.478;10.182;2023-10-31T12:23:26;0.57;;;0.50;;
23743;SDS011;12052;53.478;10.182;2023-10-31T12:25:52;1.65;;;0.93;;
23743;SDS011;12052;53.478;10.182;2023-10-31T12:28:22;2.95;;;0.85;;
23743;SDS011;12052;53.478;10.182;2023-10-31T12:30:50;1.70;;;1.13;;
23743;SDS011;12052;53.478;10.182;2023-10-31T12:33:19;0.77;;;0.70;;
23743;SDS011;12052;53.478;10.182;2023-10-31T12:36:04;0.60;;;0.50;;
23743;SDS011;12052;53.478;10.182;2023-10-31T12:38:31;1.23;;;0.70;;
23743;SDS011;12052;53.478;10.182;2023-10-31T12:40:57;1.42;;;0.90;;
23743;SDS011;12052;53.478;10.182;2023-10-31T12:43:23;1.88;;;0.93;;
23743;SDS011;12052;53.478;10.182;2023-10-31T12:45:51;0.57;;;0.40;;
23743;SDS011;12052;53.478;10.182;2023-10-31T12:48:23;1.48;;;0.70;;
23743;SDS011;12052;53.478;10.182;2023-10-31T12:50:55;2.30;;;0.77;;
23743;SDS011;12052;53.478;10.182;2023-10-31T12:53:32;0.70;;;0.63;;
23743;SDS011;12052;53.478;10.182;2023-10-31T12:55:59;1.50;;;0.60;;
23743;SDS011;12052;53.478;10.182;2023-10-31T12:58:25;2.72;;;0.55;;
23743;SDS011;12052;53.478;10.182;2023-10-31T13:00:50;1.45;;;0.75;;
23743;SDS011;12052;53.478;10.182;2023-10-31T13:03:16;0.75;;;0.55;;
23743;SDS011;12052;53.478;10.182;2023-10-31T13:05:43;0.60;;;0.50;;
23743;SDS011;12052;53.478;10.182;2023-10-31T13:08:14;1.65;;;0.68;;
23743;SDS011;12052;53.478;10.182;2023-10-31T13:10:41;1.33;;;0.63;;
23743;SDS011;12052;53.478;10.182;2023-10-31T13:13:08;0.80;;;0.70;;
23743;SDS011;12052;53.478;10.182;2023-10-31T13:15:36;0.60;;;0.60;;
23743;SDS011;12052;53.478;10.182;2023-10-31T13:18:06;3.95;;;0.80;;
23743;SDS011;12052;53.478;10.182;2023-10-31T13:20:36;1.10;;;0.70;;
23743;SDS011;12052;53.478;10.182;2023-10-31T13:23:03;1.35;;;0.60;;
23743;SDS011;12052;53.478;10.182;2023-10-31T13:25:29;1.88;;;0.57;;
23743;SDS011;12052;53.478;10.182;2023-10-31T13:27:56;1.85;;;0.60;;
23743;SDS011;12052;53.478;10.182;2023-10-31T13:30:22;2.65;;;0.50;;
23743;SDS011;12052;53.478;10.182;2023-10-31T13:32:49;1.05;;;0.63;;
23743;SDS011;12052;53.478;10.182;2023-10-31T13:35:14;4.13;;;2.00;;
23743;SDS011;12052;53.478;10.182;2023-10-31T13:37:40;2.63;;;0.80;;
23743;SDS011;12052;53.478;10.182;2023-10-31T13:40:06;1.90;;;0.65;;
23743;SDS011;12052;53.478;10.182;2023-10-31T13:42:35;3.25;;;0.95;;
23743;SDS011;12052;53.478;10.182;2023-10-31T13:45:01;0.63;;;0.60;;
23743;SDS011;12052;53.478;10.182;2023-10-31T13:47:27;1.15;;;0.70;;
23743;SDS011;12052;53.478;10.182;2023-10-31T13:49:55;3.65;;;0.60;;
23743;SDS011;12052;53.478;10.182;2023-10-31T13:55:05;1.02;;;0.68;;
23743;SDS011;12052;53.478;10.182;2023-10-31T13:57:30;3.03;;;0.52;;
23743;SDS011;12052;53.478;10.182;2023-10-31T13:59:56;1.17;;;0.57;;
23743;SDS011;12052;53.478;10.182;2023-10-31T14:02:25;1.35;;;0.70;;
23743;SDS011;12052;53.478;10.182;2023-10-31T14:04:52;0.80;;;0.60;;
23743;SDS011;12052;53.478;10.182;2023-10-31T14:07:20;1.48;;;1.08;;
23743;SDS011;12052;53.478;10.182;2023-10-31T14:09:52;4.25;;;1.70;;
23743;SDS011;12052;53.478;10.182;2023-10-31T14:12:23;2.97;;;1.95;;
23743;SDS011;12052;53.478;10.182;2023-10-31T14:14:52;2.20;;;1.65;;
23743;SDS011;12052;53.478;10.182;2023-10-31T14:17:23;4.00;;;1.60;;
23743;SDS011;12052;53.478;10.182;2023-10-31T14:19:51;3.38;;;1.70;;
23743;SDS011;12052;53.478;10.182;2023-10-31T14:22:17;2.28;;;1.48;;
23743;SDS011;12052;53.478;10.182;2023-10-31T14:24:44;3.90;;;1.58;;
23743;SDS011;12052;53.478;10.182;2023-10-31T14:27:09;2.78;;;1.77;;
23743;SDS011;12052;53.478;10.182;2023-10-31T14:29:35;2.47;;;1.60;;
23743;SDS011;12052;53.478;10.182;2023-10-31T14:32:07;1.95;;;1.30;;
23743;SDS011;12052;53.478;10.182;2023-10-31T14:34:34;1.85;;;1.40;;
23743;SDS011;12052;53.478;10.182;2023-10-31T14:37:00;1.70;;;1.33;;
23743;SDS011;12052;53.478;10.182;2023-10-31T14:39:26;2.05;;;1.45;;
23743;SDS011;12052;53.478;10.182;2023-10-31T14:41:53;4.07;;;1.27;;
23743;SDS011;12052;53.478;10.182;2023-10-31T14:44:22;0.80;;;0.80;;
23743;SDS011;12052;53.478;10.182;2023-10-31T14:46:51;2.13;;;1.30;;
23743;SDS011;12052;53.478;10.182;2023-10-31T14:49:21;1.35;;;0.90;;
23743;SDS011;12052;53.478;10.182;2023-10-31T14:51:46;1.27;;;1.10;;
23743;SDS011;12052;53.478;10.182;2023-10-31T14:54:12;3.17;;;1.20;;
23743;SDS011;12052;53.478;10.182;2023-10-31T14:56:38;0.95;;;0.75;;
23743;SDS011;12052;53.478;10.182;2023-10-31T14:59:07;2.38;;;1.10;;
23743;SDS011;12052;53.478;10.182;2023-10-31T15:04:03;3.05;;;1.00;;
23743;SDS011;12052;53.478;10.182;2023-10-31T15:06:30;2.50;;;1.13;;
23743;SDS011;12052;53.478;10.182;2023-10-31T15:08:57;3.03;;;1.42;;
23743;SDS011;12052;53.478;10.182;2023-10-31T15:11:32;1.27;;;0.95;;
23743;SDS011;12052;53.478;10.182;2023-10-31T15:13:59;4.63;;;1.02;;
23743;SDS011;12052;53.478;10.182;2023-10-31T15:16:26;1.48;;;0.80;;
23743;SDS011;12052;53.478;10.182;2023-10-31T15:18:51;0.95;;;0.70;;
23743;SDS011;12052;53.478;10.182;2023-10-31T15:21:19;1.67;;;1.20;;
23743;SDS011;12052;53.478;10.182;2023-10-31T15:23:48;1.08;;;0.90;;
23743;SDS011;12052;53.478;10.182;2023-10-31T15:26:16;2.17;;;1.35;;
23743;SDS011;12052;53.478;10.182;2023-10-31T15:28:44;2.15;;;0.82;;
23743;SDS011;12052;53.478;10.182;2023-10-31T15:31:11;2.83;;;0.70;;